sensor_id;sensor_type;location;lat;lon;timestamp;pressure;altitude;pressure_sealevel;temperature;humidity
22775;BME280;11554;51.106;3.684;2022-09-03T00:00:03;100897.13;;;17.53;95.94
22775;BME280;11554;51.106;3.684;2022-09-03T00:05:03;100895.62;;;17.46;93.99
22775;BME280;11554;51.106;3.684;2022-09-03T00:10:01;100900.39;;;17.47;95.3
22775;BME280;11554;51.106;3.684;2022-09-03T00:15:02;100894.19;;;17.40;92.15
22775;BME280;11554;51.106;3.684;2022-09-03T00:20:00;100895.33;;;17.40;94.32
22775;BME280;11554;51.106;3.684;2022-09-03T00:25:01;100890.48;;;17.38;93.48
22775;BME280;11554;51.106;3.684;2022-09-03T00:30:00;100894.76;;;17.43;95.62
22775;BME280;11554;51.106;3.684;2022-09-03T00:35:01;100894.87000000001;;;17.42;95.14
22775;BME280;11554;51.106;3.684;2022-09-03T00:40:00;100893.97;;;17.46;97.82
22775;BME280;11554;51.106;3.684;2022-09-03T00:45:02;100896.39;;;17.50;100.0
22775;BME280;11554;51.106;3.684;2022-09-03T00:50:02;100904.31999999999;;;17.50;99.88
22775;BME280;11554;51.106;3.684;2022-09-03T00:55:02;100901.58;;;17.46;97.77
22775;BME280;11554;51.106;3.684;2022-09-03T01:00:03;100901.31;;;17.54;100.0
22775;BME280;11554;51.106;3.684;2022-09-03T01:05:01;100901.9;;;17.51;98.21
22775;BME280;11554;51.106;3.684;2022-09-03T01:10:06;100901.5;;;17.53;98.54
22775;BME280;11554;51.106;3.684;2022-09-03T01:15:02;100900.62000000001;;;17.57;99.63
22775;BME280;11554;51.106;3.684;2022-09-03T01:20:02;100898.13;;;17.55;98.19
22775;BME280;11554;51.106;3.684;2022-09-03T01:25:05;100900.89;;;17.52;96.89
22775;BME280;11554;51.106;3.684;2022-09-03T01:30:01;100907.19;;;17.57;99.66
22775;BME280;11554;51.106;3.684;2022-09-03T01:35:03;100910.96;;;17.57;100.0
22775;BME280;11554;51.106;3.684;2022-09-03T01:40:02;100909.63;;;17.52;99.82
22775;BME280;11554;51.106;3.684;2022-09-03T01:45:02;100906.84;;;17.48;98.11
22775;BME280;11554;51.106;3.684;2022-09-03T01:50:02;100908.09000000001;;;17.49;99.82
22775;BME280;11554;51.106;3.684;2022-09-03T01:55:03;100911.92;;;17.50;100.0
22775;BME280;11554;51.106;3.684;2022-09-03T02:00:00;100906.62999999999;;;17.53;100.0
22775;BME280;11554;51.106;3.684;2022-09-03T02:05:01;100908.84;;;17.43;98.16
22775;BME280;11554;51.106;3.684;2022-09-03T02:10:00;100914.89;;;17.43;100.0
22775;BME280;11554;51.106;3.684;2022-09-03T02:15:00;100922.27;;;17.39;100.0
22775;BME280;11554;51.106;3.684;2022-09-03T02:20:01;100923.71;;;17.33;100.0
22775;BME280;11554;51.106;3.684;2022-09-03T02:25:00;100929.1;;;17.32;100.0
22775;BME280;11554;51.106;3.684;2022-09-03T02:30:00;100923.29999999999;;;17.31;100.0
22775;BME280;11554;51.106;3.684;2022-09-03T02:35:00;100921.04000000001;;;17.27;100.0
22775;BME280;11554;51.106;3.684;2022-09-03T02:40:00;100920.93;;;17.25;100.0
22775;BME280;11554;51.106;3.684;2022-09-03T02:45:03;100920.59000000001;;;17.17;100.0
22775;BME280;11554;51.106;3.684;2022-09-03T02:50:00;100917.92;;;17.12;100.0
22775;BME280;11554;51.106;3.684;2022-09-03T02:55:00;100913.08;;;17.08;99.89
22775;BME280;11554;51.106;3.684;2022-09-03T03:00:00;100912.09;;;17.13;100.0
22775;BME280;11554;51.106;3.684;2022-09-03T03:05:00;100910.03;;;17.12;100.0
22775;BME280;11554;51.106;3.684;2022-09-03T03:10:00;100912.21;;;17.16;100.0
22775;BME280;11554;51.106;3.684;2022-09-03T03:15:00;100913.36;;;17.11;100.0
22775;BME280;11554;51.106;3.684;2022-09-03T03:20:00;100910.20999999999;;;17.17;100.0
22775;BME280;11554;51.106;3.684;2022-09-03T03:25:00;100914.61;;;17.16;100.0
22775;BME280;11554;51.106;3.684;2022-09-03T03:30:00;100908.97;;;17.09;100.0
22775;BME280;11554;51.106;3.684;2022-09-03T03:35:00;100905.7;;;17.06;98.73
22775;BME280;11554;51.106;3.684;2022-09-03T03:40:00;100904.3;;;17.06;99.08
22775;BME280;11554;51.106;3.684;2022-09-03T03:45:00;100910.65999999999;;;17.12;100.0
22775;BME280;11554;51.106;3.684;2022-09-03T03:50:00;100915.39;;;17.11;100.0
22775;BME280;11554;51.106;3.684;2022-09-03T03:55:00;100913.83;;;17.17;100.0
22775;BME280;11554;51.106;3.684;2022-09-03T04:00:00;100926.25;;;17.19;100.0
22775;BME280;11554;51.106;3.684;2022-09-03T04:05:00;100936.01999999999;;;17.16;100.0
22775;BME280;11554;51.106;3.684;2022-09-03T04:10:00;100936.31;;;17.14;100.0
22775;BME280;11554;51.106;3.684;2022-09-03T04:15:00;100940.69;;;17.14;100.0
22775;BME280;11554;51.106;3.684;2022-09-03T04:20:00;100936.7;;;17.25;100.0
22775;BME280;11554;51.106;3.684;2022-09-03T04:25:00;100938.53;;;17.29;100.0
22775;BME280;11554;51.106;3.684;2022-09-03T04:30:00;100932.87;;;17.34;100.0
22775;BME280;11554;51.106;3.684;2022-09-03T04:35:00;100923.63;;;17.31;100.0
22775;BME280;11554;51.106;3.684;2022-09-03T04:40:00;100909.53;;;17.35;100.0
22775;BME280;11554;51.106;3.684;2022-09-03T04:45:00;100906.62;;;17.30;100.0
22775;BME280;11554;51.106;3.684;2022-09-03T04:50:00;100900.95;;;17.21;100.0
22775;BME280;11554;51.106;3.684;2022-09-03T04:55:00;100894.64;;;17.16;100.0
22775;BME280;11554;51.106;3.684;2022-09-03T05:00:00;100903.08;;;17.23;100.0
22775;BME280;11554;51.106;3.684;2022-09-03T05:05:00;100904.28;;;17.23;100.0
22775;BME280;11554;51.106;3.684;2022-09-03T05:10:00;100907.32;;;17.20;100.0
22775;BME280;11554;51.106;3.684;2022-09-03T05:15:00;100915.13;;;17.16;100.0
22775;BME280;11554;51.106;3.684;2022-09-03T05:20:00;100913.03;;;17.14;100.0
22775;BME280;11554;51.106;3.684;2022-09-03T05:25:00;100910.32;;;17.19;100.0
22775;BME280;11554;51.106;3.684;2022-09-03T05:30:00;100909.58;;;17.24;100.0
22775;BME280;11554;51.106;3.684;2022-09-03T05:35:00;100912.86;;;17.31;100.0
22775;BME280;11554;51.106;3.684;2022-09-03T05:40:00;100916.5;;;17.34;100.0
22775;BME280;11554;51.106;3.684;2022-09-03T05:45:00;100917.38;;;17.37;100.0
22775;BME280;11554;51.106;3.684;2022-09-03T05:50:00;100914.07;;;17.45;100.0
22775;BME280;11554;51.106;3.684;2022-09-03T05:55:00;100921.37;;;17.48;100.0
22775;BME280;11554;51.106;3.684;2022-09-03T06:00:00;100920.45000000001;;;17.49;100.0
22775;BME280;11554;51.106;3.684;2022-09-03T06:05:00;100928.23;;;17.51;100.0
22775;BME280;11554;51.106;3.684;2022-09-03T06:10:00;100934.93999999999;;;17.58;100.0
22775;BME280;11554;51.106;3.684;2022-09-03T06:15:00;100931.16;;;17.68;100.0
22775;BME280;11554;51.106;3.684;2022-09-03T06:20:00;100931.91;;;17.76;100.0
22775;BME280;11554;51.106;3.684;2022-09-03T06:25:00;100926.68;;;17.81;100.0
22775;BME280;11554;51.106;3.684;2022-09-03T06:30:00;100938.89;;;17.92;100.0
22775;BME280;11554;51.106;3.684;2022-09-03T06:35:00;100943.62999999999;;;18.03;100.0
22775;BME280;11554;51.106;3.684;2022-09-03T06:40:00;100944.51000000001;;;18.12;100.0
22775;BME280;11554;51.106;3.684;2022-09-03T06:45:00;100948.51999999999;;;18.22;100.0
22775;BME280;11554;51.106;3.684;2022-09-03T06:50:00;100947.05;;;18.30;100.0
22775;BME280;11554;51.106;3.684;2022-09-03T06:55:00;100946.04000000001;;;18.33;100.0
22775;BME280;11554;51.106;3.684;2022-09-03T07:00:00;100949.87;;;18.37;100.0
22775;BME280;11554;51.106;3.684;2022-09-03T07:05:00;100951.01;;;18.44;100.0
22775;BME280;11554;51.106;3.684;2022-09-03T07:10:00;100956.34;;;18.58;100.0
22775;BME280;11554;51.106;3.684;2022-09-03T07:15:00;100955.56;;;18.74;100.0
22775;BME280;11554;51.106;3.684;2022-09-03T07:20:00;100956.12999999999;;;18.88;100.0
22775;BME280;11554;51.106;3.684;2022-09-03T07:25:00;100952.39;;;19.11;100.0
22775;BME280;11554;51.106;3.684;2022-09-03T07:30:00;100955.59;;;19.27;100.0
22775;BME280;11554;51.106;3.684;2022-09-03T07:35:00;100958.0;;;19.49;100.0
22775;BME280;11554;51.106;3.684;2022-09-03T07:40:00;100953.89;;;19.66;100.0
22775;BME280;11554;51.106;3.684;2022-09-03T07:45:00;100958.62;;;19.80;100.0
22775;BME280;11554;51.106;3.684;2022-09-03T07:50:00;100966.92;;;19.97;100.0
22775;BME280;11554;51.106;3.684;2022-09-03T07:55:00;100967.52;;;20.11;100.0
22775;BME280;11554;51.106;3.684;2022-09-03T08:00:00;100969.65;;;20.32;99.71
22775;BME280;11554;51.106;3.684;2022-09-03T08:05:00;100975.45999999999;;;20.46;97.33
22775;BME280;11554;51.106;3.684;2022-09-03T08:10:00;100973.61;;;20.66;97.73
22775;BME280;11554;51.106;3.684;2022-09-03T08:15:00;100975.65;;;20.88;95.55
22775;BME280;11554;51.106;3.684;2022-09-03T08:20:00;100975.45999999999;;;21.04;93.99
22775;BME280;11554;51.106;3.684;2022-09-03T08:25:00;100977.39;;;21.28;92.86
22775;BME280;11554;51.106;3.684;2022-09-03T08:30:00;100984.07999999999;;;21.25;92.84
22775;BME280;11554;51.106;3.684;2022-09-03T08:35:00;100983.73;;;22.36;91.79
22775;BME280;11554;51.106;3.684;2022-09-03T08:40:00;100987.86;;;23.00;87.34
22775;BME280;11554;51.106;3.684;2022-09-03T08:45:00;100997.81;;;23.28;85.36
22775;BME280;11554;51.106;3.684;2022-09-03T08:50:00;101001.37;;;23.56;84.5
22775;BME280;11554;51.106;3.684;2022-09-03T08:55:03;101003.97;;;23.62;83.24
22775;BME280;11554;51.106;3.684;2022-09-03T09:00:00;101011.35;;;23.89;83.11
22775;BME280;11554;51.106;3.684;2022-09-03T09:05:02;101014.75;;;23.91;81.41
22775;BME280;11554;51.106;3.684;2022-09-03T09:10:02;101017.26;;;24.16;81.08
22775;BME280;11554;51.106;3.684;2022-09-03T09:15:03;101022.83;;;23.99;79.1
22775;BME280;11554;51.106;3.684;2022-09-03T09:20:03;101032.64;;;23.98;79.33
22775;BME280;11554;51.106;3.684;2022-09-03T09:25:00;101027.22;;;24.17;78.63
22775;BME280;11554;51.106;3.684;2022-09-03T09:30:00;101023.81;;;24.44;79.63
22775;BME280;11554;51.106;3.684;2022-09-03T09:35:00;101020.15;;;25.23;77.71
22775;BME280;11554;51.106;3.684;2022-09-03T09:40:00;101018.67;;;25.66;75.34
22775;BME280;11554;51.106;3.684;2022-09-03T09:45:07;101017.48999999999;;;26.23;74.43
22775;BME280;11554;51.106;3.684;2022-09-03T09:50:01;101020.76;;;26.26;72.79
22775;BME280;11554;51.106;3.684;2022-09-03T09:55:05;101021.14;;;26.50;73.54
22775;BME280;11554;51.106;3.684;2022-09-03T10:00:01;101021.55;;;26.55;70.77
22775;BME280;11554;51.106;3.684;2022-09-03T10:05:11;101022.68000000001;;;26.03;73.2
22775;BME280;11554;51.106;3.684;2022-09-03T10:10:01;101020.63;;;26.40;72.45
22775;BME280;11554;51.106;3.684;2022-09-03T10:15:02;101029.69;;;26.48;71.18
22775;BME280;11554;51.106;3.684;2022-09-03T10:20:02;101026.45;;;26.42;71.69
22775;BME280;11554;51.106;3.684;2022-09-03T10:25:01;101030.38;;;26.74;71.11
22775;BME280;11554;51.106;3.684;2022-09-03T10:30:00;101029.08;;;27.04;70.5
22775;BME280;11554;51.106;3.684;2022-09-03T10:35:02;101023.5;;;26.93;71.29
22775;BME280;11554;51.106;3.684;2022-09-03T10:40:05;101019.46;;;27.35;69.27
22775;BME280;11554;51.106;3.684;2022-09-03T10:45:02;101023.58;;;27.94;68.11
22775;BME280;11554;51.106;3.684;2022-09-03T10:50:01;101026.08;;;27.71;67.17
22775;BME280;11554;51.106;3.684;2022-09-03T10:55:06;101021.42;;;27.46;68.52
22775;BME280;11554;51.106;3.684;2022-09-03T11:00:02;101020.4;;;27.98;67.17
22775;BME280;11554;51.106;3.684;2022-09-03T11:05:01;101019.02;;;27.77;65.64
22775;BME280;11554;51.106;3.684;2022-09-03T11:10:03;101022.64;;;27.82;65.09
22775;BME280;11554;51.106;3.684;2022-09-03T11:15:01;101021.92;;;28.36;65.35
22775;BME280;11554;51.106;3.684;2022-09-03T11:20:02;101016.27;;;28.65;62.33
22775;BME280;11554;51.106;3.684;2022-09-03T11:25:00;101021.95;;;28.81;63.54
22775;BME280;11554;51.106;3.684;2022-09-03T11:30:01;101022.02;;;28.97;61.95
22775;BME280;11554;51.106;3.684;2022-09-03T11:35:00;101014.70000000001;;;29.32;61.2
22775;BME280;11554;51.106;3.684;2022-09-03T11:40:03;101012.57;;;29.45;62.37
22775;BME280;11554;51.106;3.684;2022-09-03T11:50:04;101007.4;;;29.75;60.28
22775;BME280;11554;51.106;3.684;2022-09-03T11:55:00;101000.42;;;30.06;58.26
22775;BME280;11554;51.106;3.684;2022-09-03T12:00:08;101001.98000000001;;;30.19;59.29
22775;BME280;11554;51.106;3.684;2022-09-03T12:05:05;101000.05;;;29.95;58.27
22775;BME280;11554;51.106;3.684;2022-09-03T12:10:03;100999.61;;;29.82;59.1
22775;BME280;11554;51.106;3.684;2022-09-03T12:15:02;101003.8;;;30.29;58.1
22775;BME280;11554;51.106;3.684;2022-09-03T12:20:00;101007.36;;;30.25;58.51
22775;BME280;11554;51.106;3.684;2022-09-03T12:25:06;101007.0;;;30.30;58.34
22775;BME280;11554;51.106;3.684;2022-09-03T12:30:01;101004.49;;;29.93;59.54
22775;BME280;11554;51.106;3.684;2022-09-03T12:35:08;101002.07;;;29.83;59.85
22775;BME280;11554;51.106;3.684;2022-09-03T12:40:00;100997.74;;;29.39;60.24
22775;BME280;11554;51.106;3.684;2022-09-03T12:45:04;100995.31;;;28.93;60.45
22775;BME280;11554;51.106;3.684;2022-09-03T12:50:04;100988.67;;;28.72;61.0
22775;BME280;11554;51.106;3.684;2022-09-03T12:55:01;100989.14;;;29.11;61.59
22775;BME280;11554;51.106;3.684;2022-09-03T13:00:03;100988.87;;;29.25;59.59
22775;BME280;11554;51.106;3.684;2022-09-03T13:05:00;100996.88;;;30.67;57.8
22775;BME280;11554;51.106;3.684;2022-09-03T13:10:01;100994.48;;;31.04;55.74
22775;BME280;11554;51.106;3.684;2022-09-03T13:25:02;100991.41;;;31.59;54.68
22775;BME280;11554;51.106;3.684;2022-09-03T13:40:02;100997.89;;;29.47;56.49
22775;BME280;11554;51.106;3.684;2022-09-03T13:45:00;100994.92;;;29.90;57.05
22775;BME280;11554;51.106;3.684;2022-09-03T13:50:01;100993.33;;;31.59;54.0
22775;BME280;11554;51.106;3.684;2022-09-03T13:55:00;100993.03;;;31.03;52.72
22775;BME280;11554;51.106;3.684;2022-09-03T14:00:01;100988.9;;;31.02;53.31
22775;BME280;11554;51.106;3.684;2022-09-03T14:05:03;100990.47;;;30.89;55.23
22775;BME280;11554;51.106;3.684;2022-09-03T14:10:03;100986.21;;;30.48;56.09
22775;BME280;11554;51.106;3.684;2022-09-03T14:15:02;100995.17;;;30.21;56.13
22775;BME280;11554;51.106;3.684;2022-09-03T14:20:01;100995.78;;;30.80;55.55
22775;BME280;11554;51.106;3.684;2022-09-03T14:25:02;100993.95;;;31.77;53.69
22775;BME280;11554;51.106;3.684;2022-09-03T14:30:00;100991.13;;;31.69;53.3
22775;BME280;11554;51.106;3.684;2022-09-03T14:40:02;100987.05;;;31.03;54.65
22775;BME280;11554;51.106;3.684;2022-09-03T14:45:07;100993.33;;;30.67;54.4
22775;BME280;11554;51.106;3.684;2022-09-03T14:55:05;100999.44;;;30.01;55.46
22775;BME280;11554;51.106;3.684;2022-09-03T15:00:04;100993.1;;;29.98;56.04
22775;BME280;11554;51.106;3.684;2022-09-03T15:05:06;100988.69;;;29.97;55.96
22775;BME280;11554;51.106;3.684;2022-09-03T15:10:03;100990.61;;;29.77;56.06
22775;BME280;11554;51.106;3.684;2022-09-03T15:15:00;100994.2;;;29.81;55.51
22775;BME280;11554;51.106;3.684;2022-09-03T15:20:04;100985.83;;;29.90;55.54
22775;BME280;11554;51.106;3.684;2022-09-03T15:30:02;100990.88;;;29.54;56.71
22775;BME280;11554;51.106;3.684;2022-09-03T15:35:03;100990.44;;;29.34;56.79
22775;BME280;11554;51.106;3.684;2022-09-03T15:40:02;100992.04999999999;;;29.08;56.16
22775;BME280;11554;51.106;3.684;2022-09-03T15:45:02;100993.25;;;28.52;56.25
22775;BME280;11554;51.106;3.684;2022-09-03T15:50:00;100994.83;;;28.31;57.55
22775;BME280;11554;51.106;3.684;2022-09-03T15:55:01;101000.2;;;28.19;58.34
22775;BME280;11554;51.106;3.684;2022-09-03T16:00:00;101001.22;;;27.89;58.87
22775;BME280;11554;51.106;3.684;2022-09-03T16:05:02;101012.48000000001;;;27.57;60.07
22775;BME280;11554;51.106;3.684;2022-09-03T16:10:03;101013.69;;;27.45;60.58
22775;BME280;11554;51.106;3.684;2022-09-03T16:15:01;101017.76999999999;;;27.40;61.33
22775;BME280;11554;51.106;3.684;2022-09-03T16:20:02;101020.29;;;27.28;61.53
22775;BME280;11554;51.106;3.684;2022-09-03T16:25:00;101016.08;;;27.17;62.21
22775;BME280;11554;51.106;3.684;2022-09-03T16:30:02;101017.58;;;27.06;62.46
22775;BME280;11554;51.106;3.684;2022-09-03T16:35:02;101020.06;;;26.93;62.33
22775;BME280;11554;51.106;3.684;2022-09-03T16:40:02;101024.25;;;26.93;62.44
22775;BME280;11554;51.106;3.684;2022-09-03T16:45:03;101018.88;;;26.77;62.97
22775;BME280;11554;51.106;3.684;2022-09-03T16:50:04;101025.93000000001;;;26.65;63.31
22775;BME280;11554;51.106;3.684;2022-09-03T16:55:02;101031.2;;;26.59;64.26
22775;BME280;11554;51.106;3.684;2022-09-03T17:00:05;101034.37;;;26.32;65.4
22775;BME280;11554;51.106;3.684;2022-09-03T17:05:02;101036.0;;;26.36;65.71
22775;BME280;11554;51.106;3.684;2022-09-03T17:10:02;101034.3;;;26.42;65.62
22775;BME280;11554;51.106;3.684;2022-09-03T17:15:04;101040.20000000001;;;26.10;65.96
22775;BME280;11554;51.106;3.684;2022-09-03T17:20:00;101046.88;;;25.82;66.49
22775;BME280;11554;51.106;3.684;2022-09-03T17:25:00;101051.79000000001;;;25.61;66.19
22775;BME280;11554;51.106;3.684;2022-09-03T17:30:03;101053.45999999999;;;25.39;66.28
22775;BME280;11554;51.106;3.684;2022-09-03T17:35:04;101058.34;;;25.17;66.33
22775;BME280;11554;51.106;3.684;2022-09-03T17:40:02;101067.58;;;24.97;66.77
22775;BME280;11554;51.106;3.684;2022-09-03T17:45:04;101074.83;;;24.74;67.18
22775;BME280;11554;51.106;3.684;2022-09-03T17:50:04;101074.77;;;24.58;67.43
22775;BME280;11554;51.106;3.684;2022-09-03T17:55:01;101083.59;;;24.42;68.19
22775;BME280;11554;51.106;3.684;2022-09-03T18:00:00;101092.42;;;24.24;68.86
22775;BME280;11554;51.106;3.684;2022-09-03T18:05:02;101096.78;;;24.02;68.45
22775;BME280;11554;51.106;3.684;2022-09-03T18:10:03;101104.26999999999;;;23.81;68.64
22775;BME280;11554;51.106;3.684;2022-09-03T18:15:03;101111.99;;;23.58;69.4
22775;BME280;11554;51.106;3.684;2022-09-03T18:20:02;101117.33;;;23.34;69.77
22775;BME280;11554;51.106;3.684;2022-09-03T18:25:00;101122.55;;;23.12;69.55
22775;BME280;11554;51.106;3.684;2022-09-03T18:30:00;101134.5;;;22.92;71.42
22775;BME280;11554;51.106;3.684;2022-09-03T18:35:00;101140.77;;;22.76;71.36
22775;BME280;11554;51.106;3.684;2022-09-03T18:40:00;101147.43;;;22.61;71.75
22775;BME280;11554;51.106;3.684;2022-09-03T18:45:02;101153.72;;;22.45;71.87
22775;BME280;11554;51.106;3.684;2022-09-03T18:50:03;101147.29999999999;;;22.31;74.9
22775;BME280;11554;51.106;3.684;2022-09-03T18:55:00;101147.94;;;22.16;76.24
22775;BME280;11554;51.106;3.684;2022-09-03T19:00:04;101152.94;;;21.99;78.58
22775;BME280;11554;51.106;3.684;2022-09-03T19:05:04;101158.18000000001;;;21.73;76.25
22775;BME280;11554;51.106;3.684;2022-09-03T19:10:01;101162.61;;;21.52;75.62
22775;BME280;11554;51.106;3.684;2022-09-03T19:15:01;101169.09000000001;;;21.35;77.13
22775;BME280;11554;51.106;3.684;2022-09-03T19:20:02;101175.31;;;21.17;76.79
22775;BME280;11554;51.106;3.684;2022-09-03T19:25:02;101177.25;;;21.05;78.66
22775;BME280;11554;51.106;3.684;2022-09-03T19:30:01;101186.95;;;20.94;79.41
22775;BME280;11554;51.106;3.684;2022-09-03T19:35:04;101192.08;;;20.90;82.91
22775;BME280;11554;51.106;3.684;2022-09-03T19:40:05;101201.14;;;20.77;80.47
22775;BME280;11554;51.106;3.684;2022-09-03T19:45:02;101200.66;;;20.65;82.11
22775;BME280;11554;51.106;3.684;2022-09-03T19:50:02;101202.72;;;20.50;80.0
22775;BME280;11554;51.106;3.684;2022-09-03T19:55:00;101205.58;;;20.38;83.42
22775;BME280;11554;51.106;3.684;2022-09-03T20:00:00;101210.70999999999;;;20.22;82.13
22775;BME280;11554;51.106;3.684;2022-09-03T20:05:00;101214.17;;;20.08;84.28
22775;BME280;11554;51.106;3.684;2022-09-03T20:10:01;101218.87000000001;;;19.98;87.42
22775;BME280;11554;51.106;3.684;2022-09-03T20:15:01;101224.97;;;19.79;85.51
22775;BME280;11554;51.106;3.684;2022-09-03T20:20:04;101222.12;;;19.62;84.94
22775;BME280;11554;51.106;3.684;2022-09-03T20:25:06;101224.34;;;19.49;83.78
22775;BME280;11554;51.106;3.684;2022-09-03T20:30:00;101227.5;;;19.40;85.45
22775;BME280;11554;51.106;3.684;2022-09-03T20:35:01;101232.36;;;19.27;85.24
22775;BME280;11554;51.106;3.684;2022-09-03T20:40:04;101237.73;;;19.14;84.9
22775;BME280;11554;51.106;3.684;2022-09-03T20:45:01;101241.42;;;19.05;85.4
22775;BME280;11554;51.106;3.684;2022-09-03T20:50:02;101248.46;;;19.05;89.54
22775;BME280;11554;51.106;3.684;2022-09-03T20:55:03;101252.47;;;18.98;87.98
22775;BME280;11554;51.106;3.684;2022-09-03T21:00:04;101249.11;;;19.05;92.77
22775;BME280;11554;51.106;3.684;2022-09-03T21:05:01;101254.17;;;18.99;90.91
22775;BME280;11554;51.106;3.684;2022-09-03T21:10:02;101248.51;;;19.00;91.59
22775;BME280;11554;51.106;3.684;2022-09-03T21:15:02;101252.79000000001;;;18.94;92.73
22775;BME280;11554;51.106;3.684;2022-09-03T21:20:02;101260.27;;;18.88;92.19
22775;BME280;11554;51.106;3.684;2022-09-03T21:25:01;101258.92;;;18.84;93.91
22775;BME280;11554;51.106;3.684;2022-09-03T21:30:00;101261.6;;;18.75;94.4
22775;BME280;11554;51.106;3.684;2022-09-03T21:35:02;101263.36;;;18.68;94.98
22775;BME280;11554;51.106;3.684;2022-09-03T21:40:00;101257.01000000001;;;18.59;93.56
22775;BME280;11554;51.106;3.684;2022-09-03T21:45:01;101255.28;;;18.46;92.55
22775;BME280;11554;51.106;3.684;2022-09-03T21:50:02;101256.95;;;18.35;92.88
22775;BME280;11554;51.106;3.684;2022-09-03T21:55:00;101254.81;;;18.28;94.45
22775;BME280;11554;51.106;3.684;2022-09-03T22:00:04;101256.09;;;18.14;92.75
22775;BME280;11554;51.106;3.684;2022-09-03T22:05:00;101261.28;;;18.11;95.64
22775;BME280;11554;51.106;3.684;2022-09-03T22:10:00;101265.13;;;17.95;93.26
22775;BME280;11554;51.106;3.684;2022-09-03T22:15:00;101268.7;;;17.95;97.97
22775;BME280;11554;51.106;3.684;2022-09-03T22:20:01;101269.74;;;17.85;97.05
22775;BME280;11554;51.106;3.684;2022-09-03T22:25:00;101269.28;;;17.74;94.12
22775;BME280;11554;51.106;3.684;2022-09-03T22:30:01;101269.97;;;17.71;97.12
22775;BME280;11554;51.106;3.684;2022-09-03T22:35:04;101270.76;;;17.74;99.94
22775;BME280;11554;51.106;3.684;2022-09-03T22:40:01;101281.91;;;17.61;96.04
22775;BME280;11554;51.106;3.684;2022-09-03T22:45:05;101287.87;;;17.62;100.0
22775;BME280;11554;51.106;3.684;2022-09-03T22:50:01;101292.08;;;17.63;100.0
22775;BME280;11554;51.106;3.684;2022-09-03T22:55:05;101292.5;;;17.60;100.0
22775;BME280;11554;51.106;3.684;2022-09-03T23:00:02;101299.81;;;17.54;100.0
22775;BME280;11554;51.106;3.684;2022-09-03T23:05:02;101304.72;;;17.44;100.0
22775;BME280;11554;51.106;3.684;2022-09-03T23:10:01;101310.69;;;17.34;99.76
22775;BME280;11554;51.106;3.684;2022-09-03T23:15:00;101313.39;;;17.25;100.0
22775;BME280;11554;51.106;3.684;2022-09-03T23:20:02;101316.38;;;17.26;100.0
22775;BME280;11554;51.106;3.684;2022-09-03T23:25:02;101314.33;;;17.28;100.0
22775;BME280;11554;51.106;3.684;2022-09-03T23:30:00;101318.59;;;17.22;100.0
22775;BME280;11554;51.106;3.684;2022-09-03T23:35:01;101315.03;;;17.10;100.0
22775;BME280;11554;51.106;3.684;2022-09-03T23:40:09;101323.56;;;16.97;100.0
22775;BME280;11554;51.106;3.684;2022-09-03T23:45:04;101325.51;;;16.85;100.0
22775;BME280;11554;51.106;3.684;2022-09-03T23:50:02;101330.81;;;16.81;100.0
22775;BME280;11554;51.106;3.684;2022-09-03T23:55:02;101340.64;;;16.75;100.0
